West Augusta, Virginia
Current Conditions -  °F | °C
As of 9:15 AM on Tuesday 27 Jan 2015 (Local Time) from KVBW Reporting Station
Scattered Clouds Scattered Clouds  
Wind Chill: 19°   Ceiling: Unl
Heat Index: 26°   Visibility: 10mi
Dew Point: 16°   Wind: 6mph
Humidity: 67%   Direction: 360°N
Pressure: 29.82"   Gusts: NA
Location:  38.27°N, 79.32°W
Report Text: KVBW 271415Z AUTO 36005KT 10SM SCT095 M03/M09 A2982 RMK AO2 T10341088
Loading
Personal Weather Stations






























Interactive Weather Map New forecast layout! Learn more

10-Day Weather Forecast

Advertisements
Track Severe Weather on mobile